sensor_id;sensor_type;location;lat;lon;timestamp;P1;durP1;ratioP1;P2;durP2;ratioP2
53010;SDS011;42803;55.762;38.084;2022-11-23T00:00:03;4.30;;;2.25;;
53010;SDS011;42803;55.762;38.084;2022-11-23T00:02:33;4.65;;;2.00;;
53010;SDS011;42803;55.762;38.084;2022-11-23T00:05:02;3.83;;;2.10;;
53010;SDS011;42803;55.762;38.084;2022-11-23T00:07:31;4.75;;;3.03;;
53010;SDS011;42803;55.762;38.084;2022-11-23T00:10:00;6.28;;;2.67;;
53010;SDS011;42803;55.762;38.084;2022-11-23T00:12:29;5.25;;;2.20;;
53010;SDS011;42803;55.762;38.084;2022-11-23T00:14:59;6.93;;;2.58;;
53010;SDS011;42803;55.762;38.084;2022-11-23T00:17:30;4.75;;;2.50;;
53010;SDS011;42803;55.762;38.084;2022-11-23T00:19:59;4.65;;;2.35;;
53010;SDS011;42803;55.762;38.084;2022-11-23T00:22:28;4.43;;;1.90;;
53010;SDS011;42803;55.762;38.084;2022-11-23T00:24:57;5.22;;;2.20;;
53010;SDS011;42803;55.762;38.084;2022-11-23T00:27:27;3.22;;;2.00;;
53010;SDS011;42803;55.762;38.084;2022-11-23T00:29:55;2.50;;;2.03;;
53010;SDS011;42803;55.762;38.084;2022-11-23T00:32:26;2.20;;;1.70;;
53010;SDS011;42803;55.762;38.084;2022-11-23T00:34:57;5.72;;;2.28;;
53010;SDS011;42803;55.762;38.084;2022-11-23T00:37:26;3.47;;;2.00;;
53010;SDS011;42803;55.762;38.084;2022-11-23T00:39:55;2.45;;;1.90;;
53010;SDS011;42803;55.762;38.084;2022-11-23T00:42:24;3.38;;;1.95;;
53010;SDS011;42803;55.762;38.084;2022-11-23T00:44:53;4.65;;;1.80;;
53010;SDS011;42803;55.762;38.084;2022-11-23T00:47:23;3.30;;;1.90;;
53010;SDS011;42803;55.762;38.084;2022-11-23T00:49:53;4.85;;;2.00;;
53010;SDS011;42803;55.762;38.084;2022-11-23T00:52:22;3.63;;;1.60;;
53010;SDS011;42803;55.762;38.084;2022-11-23T00:54:51;3.45;;;2.10;;
53010;SDS011;42803;55.762;38.084;2022-11-23T00:57:20;3.17;;;2.38;;
53010;SDS011;42803;55.762;38.084;2022-11-23T00:59:49;2.30;;;2.00;;
53010;SDS011;42803;55.762;38.084;2022-11-23T01:02:18;3.50;;;2.30;;
53010;SDS011;42803;55.762;38.084;2022-11-23T01:04:47;2.25;;;1.63;;
53010;SDS011;42803;55.762;38.084;2022-11-23T01:07:17;5.22;;;2.50;;
53010;SDS011;42803;55.762;38.084;2022-11-23T01:09:46;3.13;;;1.90;;
53010;SDS011;42803;55.762;38.084;2022-11-23T01:12:15;2.42;;;1.85;;
53010;SDS011;42803;55.762;38.084;2022-11-23T01:14:46;3.22;;;1.67;;
53010;SDS011;42803;55.762;38.084;2022-11-23T01:17:15;3.90;;;2.20;;
53010;SDS011;42803;55.762;38.084;2022-11-23T01:19:44;3.40;;;2.42;;
53010;SDS011;42803;55.762;38.084;2022-11-23T01:22:13;3.17;;;1.90;;
53010;SDS011;42803;55.762;38.084;2022-11-23T01:24:44;4.20;;;2.38;;
53010;SDS011;42803;55.762;38.084;2022-11-23T01:27:13;4.03;;;2.50;;
53010;SDS011;42803;55.762;38.084;2022-11-23T01:29:42;2.85;;;2.17;;
53010;SDS011;42803;55.762;38.084;2022-11-23T01:32:11;3.03;;;1.70;;
53010;SDS011;42803;55.762;38.084;2022-11-23T01:34:40;4.38;;;2.38;;
53010;SDS011;42803;55.762;38.084;2022-11-23T01:37:10;3.33;;;2.10;;
53010;SDS011;42803;55.762;38.084;2022-11-23T01:39:39;3.38;;;2.30;;
53010;SDS011;42803;55.762;38.084;2022-11-23T01:42:09;4.00;;;2.08;;
53010;SDS011;42803;55.762;38.084;2022-11-23T01:44:44;3.63;;;1.75;;
53010;SDS011;42803;55.762;38.084;2022-11-23T01:47:13;3.40;;;2.03;;
53010;SDS011;42803;55.762;38.084;2022-11-23T01:49:42;4.75;;;2.35;;
53010;SDS011;42803;55.762;38.084;2022-11-23T01:52:14;2.53;;;1.98;;
53010;SDS011;42803;55.762;38.084;2022-11-23T01:54:46;6.07;;;2.58;;
53010;SDS011;42803;55.762;38.084;2022-11-23T01:57:19;2.50;;;2.00;;
53010;SDS011;42803;55.762;38.084;2022-11-23T01:59:51;4.47;;;1.98;;
53010;SDS011;42803;55.762;38.084;2022-11-23T02:02:22;2.70;;;2.17;;
53010;SDS011;42803;55.762;38.084;2022-11-23T02:04:54;4.28;;;2.40;;
53010;SDS011;42803;55.762;38.084;2022-11-23T02:07:26;6.07;;;2.42;;
53010;SDS011;42803;55.762;38.084;2022-11-23T02:09:56;4.07;;;2.33;;
53010;SDS011;42803;55.762;38.084;2022-11-23T02:12:27;4.43;;;2.55;;
53010;SDS011;42803;55.762;38.084;2022-11-23T02:14:57;2.63;;;2.33;;
53010;SDS011;42803;55.762;38.084;2022-11-23T02:17:25;7.03;;;2.53;;
53010;SDS011;42803;55.762;38.084;2022-11-23T02:19:55;5.68;;;2.72;;
53010;SDS011;42803;55.762;38.084;2022-11-23T02:22:32;5.10;;;2.40;;
53010;SDS011;42803;55.762;38.084;2022-11-23T02:25:11;3.08;;;2.30;;
53010;SDS011;42803;55.762;38.084;2022-11-23T02:27:49;4.68;;;2.78;;
53010;SDS011;42803;55.762;38.084;2022-11-23T02:30:18;5.07;;;2.60;;
53010;SDS011;42803;55.762;38.084;2022-11-23T02:32:51;3.67;;;2.25;;
53010;SDS011;42803;55.762;38.084;2022-11-23T02:35:20;3.53;;;2.50;;
53010;SDS011;42803;55.762;38.084;2022-11-23T02:37:49;3.72;;;2.17;;
53010;SDS011;42803;55.762;38.084;2022-11-23T02:40:22;5.63;;;2.67;;
53010;SDS011;42803;55.762;38.084;2022-11-23T02:42:56;3.67;;;2.53;;
53010;SDS011;42803;55.762;38.084;2022-11-23T02:45:30;2.72;;;1.83;;
53010;SDS011;42803;55.762;38.084;2022-11-23T02:48:03;3.38;;;2.63;;
53010;SDS011;42803;55.762;38.084;2022-11-23T02:50:33;4.45;;;2.38;;
53010;SDS011;42803;55.762;38.084;2022-11-23T02:53:02;3.88;;;2.42;;
53010;SDS011;42803;55.762;38.084;2022-11-23T02:55:31;3.63;;;2.70;;
53010;SDS011;42803;55.762;38.084;2022-11-23T02:58:02;2.67;;;2.05;;
53010;SDS011;42803;55.762;38.084;2022-11-23T03:00:33;6.55;;;2.65;;
53010;SDS011;42803;55.762;38.084;2022-11-23T03:03:02;3.33;;;2.30;;
53010;SDS011;42803;55.762;38.084;2022-11-23T03:05:32;4.22;;;2.60;;
53010;SDS011;42803;55.762;38.084;2022-11-23T03:08:04;4.10;;;2.38;;
53010;SDS011;42803;55.762;38.084;2022-11-23T03:10:33;5.85;;;3.28;;
53010;SDS011;42803;55.762;38.084;2022-11-23T03:13:04;3.80;;;2.83;;
53010;SDS011;42803;55.762;38.084;2022-11-23T03:15:35;5.97;;;3.15;;
53010;SDS011;42803;55.762;38.084;2022-11-23T03:18:05;4.55;;;2.60;;
53010;SDS011;42803;55.762;38.084;2022-11-23T03:20:34;5.93;;;3.08;;
53010;SDS011;42803;55.762;38.084;2022-11-23T03:23:04;6.65;;;3.33;;
53010;SDS011;42803;55.762;38.084;2022-11-23T03:25:33;8.00;;;3.47;;
53010;SDS011;42803;55.762;38.084;2022-11-23T03:28:05;5.07;;;2.90;;
53010;SDS011;42803;55.762;38.084;2022-11-23T03:30:34;5.72;;;2.92;;
53010;SDS011;42803;55.762;38.084;2022-11-23T03:33:05;5.43;;;3.22;;
53010;SDS011;42803;55.762;38.084;2022-11-23T03:35:35;9.20;;;3.70;;
53010;SDS011;42803;55.762;38.084;2022-11-23T03:38:24;8.65;;;3.97;;
53010;SDS011;42803;55.762;38.084;2022-11-23T03:40:53;7.25;;;3.20;;
53010;SDS011;42803;55.762;38.084;2022-11-23T03:43:26;5.70;;;3.58;;
53010;SDS011;42803;55.762;38.084;2022-11-23T03:45:56;7.38;;;3.95;;
53010;SDS011;42803;55.762;38.084;2022-11-23T03:48:25;7.80;;;3.88;;
53010;SDS011;42803;55.762;38.084;2022-11-23T03:50:55;6.82;;;3.42;;
53010;SDS011;42803;55.762;38.084;2022-11-23T03:53:24;9.73;;;4.50;;
53010;SDS011;42803;55.762;38.084;2022-11-23T03:55:53;7.45;;;4.03;;
53010;SDS011;42803;55.762;38.084;2022-11-23T03:58:27;8.35;;;3.85;;
53010;SDS011;42803;55.762;38.084;2022-11-23T04:00:57;7.93;;;4.50;;
53010;SDS011;42803;55.762;38.084;2022-11-23T04:03:27;6.20;;;3.22;;
53010;SDS011;42803;55.762;38.084;2022-11-23T04:06:18;7.53;;;4.07;;
53010;SDS011;42803;55.762;38.084;2022-11-23T04:09:06;6.78;;;3.95;;
53010;SDS011;42803;55.762;38.084;2022-11-23T04:11:53;7.88;;;4.43;;
53010;SDS011;42803;55.762;38.084;2022-11-23T04:14:25;7.97;;;4.07;;
53010;SDS011;42803;55.762;38.084;2022-11-23T04:16:54;8.02;;;4.60;;
53010;SDS011;42803;55.762;38.084;2022-11-23T04:19:23;7.97;;;4.53;;
53010;SDS011;42803;55.762;38.084;2022-11-23T04:21:52;8.77;;;4.05;;
53010;SDS011;42803;55.762;38.084;2022-11-23T04:24:22;8.20;;;4.70;;
53010;SDS011;42803;55.762;38.084;2022-11-23T04:26:54;6.80;;;3.50;;
53010;SDS011;42803;55.762;38.084;2022-11-23T04:29:25;6.55;;;3.80;;
53010;SDS011;42803;55.762;38.084;2022-11-23T04:31:54;7.63;;;3.92;;
53010;SDS011;42803;55.762;38.084;2022-11-23T04:34:23;7.05;;;4.00;;
53010;SDS011;42803;55.762;38.084;2022-11-23T04:36:53;6.93;;;3.90;;
53010;SDS011;42803;55.762;38.084;2022-11-23T04:39:28;6.00;;;3.30;;
53010;SDS011;42803;55.762;38.084;2022-11-23T04:42:19;5.65;;;3.58;;
53010;SDS011;42803;55.762;38.084;2022-11-23T04:44:55;6.13;;;3.33;;
53010;SDS011;42803;55.762;38.084;2022-11-23T04:47:24;8.10;;;3.45;;
53010;SDS011;42803;55.762;38.084;2022-11-23T04:49:57;5.82;;;3.40;;
53010;SDS011;42803;55.762;38.084;2022-11-23T04:52:29;4.03;;;2.65;;
53010;SDS011;42803;55.762;38.084;2022-11-23T04:54:59;4.90;;;2.63;;
53010;SDS011;42803;55.762;38.084;2022-11-23T04:57:30;4.47;;;2.88;;
53010;SDS011;42803;55.762;38.084;2022-11-23T05:00:02;6.85;;;3.53;;
53010;SDS011;42803;55.762;38.084;2022-11-23T05:02:35;6.53;;;3.72;;
53010;SDS011;42803;55.762;38.084;2022-11-23T05:05:19;6.38;;;3.47;;
53010;SDS011;42803;55.762;38.084;2022-11-23T05:07:48;5.47;;;3.10;;
53010;SDS011;42803;55.762;38.084;2022-11-23T05:10:19;5.28;;;3.05;;
53010;SDS011;42803;55.762;38.084;2022-11-23T05:12:49;5.50;;;3.55;;
53010;SDS011;42803;55.762;38.084;2022-11-23T05:15:20;6.22;;;3.38;;
53010;SDS011;42803;55.762;38.084;2022-11-23T05:17:49;4.00;;;2.88;;
53010;SDS011;42803;55.762;38.084;2022-11-23T05:20:25;6.75;;;2.97;;
53010;SDS011;42803;55.762;38.084;2022-11-23T05:22:54;7.22;;;3.20;;
53010;SDS011;42803;55.762;38.084;2022-11-23T05:25:24;5.55;;;3.22;;
53010;SDS011;42803;55.762;38.084;2022-11-23T05:28:01;6.25;;;3.83;;
53010;SDS011;42803;55.762;38.084;2022-11-23T05:30:51;5.70;;;3.47;;
53010;SDS011;42803;55.762;38.084;2022-11-23T05:33:21;3.97;;;3.03;;
53010;SDS011;42803;55.762;38.084;2022-11-23T05:35:50;5.18;;;3.30;;
53010;SDS011;42803;55.762;38.084;2022-11-23T05:38:28;3.30;;;1.90;;
53010;SDS011;42803;55.762;38.084;2022-11-23T05:41:00;4.25;;;2.88;;
53010;SDS011;42803;55.762;38.084;2022-11-23T05:43:30;6.70;;;2.90;;
53010;SDS011;42803;55.762;38.084;2022-11-23T05:46:00;6.50;;;3.45;;
53010;SDS011;42803;55.762;38.084;2022-11-23T05:48:33;5.28;;;3.22;;
53010;SDS011;42803;55.762;38.084;2022-11-23T05:51:08;5.60;;;2.90;;
53010;SDS011;42803;55.762;38.084;2022-11-23T05:53:48;6.97;;;3.33;;
53010;SDS011;42803;55.762;38.084;2022-11-23T05:56:23;4.05;;;2.75;;
53010;SDS011;42803;55.762;38.084;2022-11-23T05:59:15;7.55;;;3.00;;
53010;SDS011;42803;55.762;38.084;2022-11-23T06:01:51;4.65;;;2.78;;
53010;SDS011;42803;55.762;38.084;2022-11-23T06:04:28;4.35;;;2.40;;
53010;SDS011;42803;55.762;38.084;2022-11-23T06:06:59;4.28;;;2.70;;
53010;SDS011;42803;55.762;38.084;2022-11-23T06:09:54;5.85;;;3.45;;
53010;SDS011;42803;55.762;38.084;2022-11-23T06:12:23;5.20;;;2.85;;
53010;SDS011;42803;55.762;38.084;2022-11-23T06:14:52;5.47;;;3.25;;
53010;SDS011;42803;55.762;38.084;2022-11-23T06:17:25;5.05;;;2.85;;
53010;SDS011;42803;55.762;38.084;2022-11-23T06:20:00;6.45;;;2.72;;
53010;SDS011;42803;55.762;38.084;2022-11-23T06:22:30;4.65;;;2.63;;
53010;SDS011;42803;55.762;38.084;2022-11-23T06:25:02;6.57;;;2.78;;
53010;SDS011;42803;55.762;38.084;2022-11-23T06:27:50;5.82;;;2.70;;
53010;SDS011;42803;55.762;38.084;2022-11-23T06:30:24;4.13;;;2.50;;
53010;SDS011;42803;55.762;38.084;2022-11-23T06:33:02;3.65;;;2.33;;
53010;SDS011;42803;55.762;38.084;2022-11-23T06:35:38;3.03;;;2.20;;
53010;SDS011;42803;55.762;38.084;2022-11-23T06:38:07;4.13;;;2.30;;
53010;SDS011;42803;55.762;38.084;2022-11-23T06:40:38;5.10;;;2.45;;
53010;SDS011;42803;55.762;38.084;2022-11-23T06:43:07;3.28;;;2.42;;
53010;SDS011;42803;55.762;38.084;2022-11-23T06:45:41;5.60;;;3.42;;
53010;SDS011;42803;55.762;38.084;2022-11-23T06:48:16;3.67;;;2.67;;
53010;SDS011;42803;55.762;38.084;2022-11-23T06:50:48;7.00;;;3.10;;
53010;SDS011;42803;55.762;38.084;2022-11-23T06:53:19;5.65;;;2.88;;
53010;SDS011;42803;55.762;38.084;2022-11-23T06:55:56;6.82;;;4.22;;
53010;SDS011;42803;55.762;38.084;2022-11-23T07:01:00;6.90;;;4.00;;
53010;SDS011;42803;55.762;38.084;2022-11-23T07:03:36;6.32;;;5.25;;
53010;SDS011;42803;55.762;38.084;2022-11-23T07:06:16;8.73;;;4.40;;
53010;SDS011;42803;55.762;38.084;2022-11-23T07:08:45;6.35;;;3.38;;
53010;SDS011;42803;55.762;38.084;2022-11-23T07:11:26;9.23;;;4.93;;
53010;SDS011;42803;55.762;38.084;2022-11-23T07:13:56;6.53;;;3.22;;
53010;SDS011;42803;55.762;38.084;2022-11-23T07:16:28;4.47;;;2.75;;
53010;SDS011;42803;55.762;38.084;2022-11-23T07:18:58;4.22;;;2.75;;
53010;SDS011;42803;55.762;38.084;2022-11-23T07:21:28;4.53;;;3.10;;
53010;SDS011;42803;55.762;38.084;2022-11-23T07:23:57;4.55;;;3.38;;
53010;SDS011;42803;55.762;38.084;2022-11-23T07:26:26;5.97;;;3.60;;
53010;SDS011;42803;55.762;38.084;2022-11-23T07:28:55;6.00;;;3.28;;
53010;SDS011;42803;55.762;38.084;2022-11-23T07:31:24;4.70;;;3.17;;
53010;SDS011;42803;55.762;38.084;2022-11-23T07:33:53;4.40;;;2.58;;
53010;SDS011;42803;55.762;38.084;2022-11-23T07:36:24;6.53;;;3.50;;
53010;SDS011;42803;55.762;38.084;2022-11-23T07:38:53;7.07;;;3.65;;
53010;SDS011;42803;55.762;38.084;2022-11-23T07:41:22;6.00;;;3.75;;
53010;SDS011;42803;55.762;38.084;2022-11-23T07:44:13;4.45;;;2.83;;
53010;SDS011;42803;55.762;38.084;2022-11-23T07:46:44;4.50;;;2.40;;
53010;SDS011;42803;55.762;38.084;2022-11-23T07:49:13;4.43;;;3.05;;
53010;SDS011;42803;55.762;38.084;2022-11-23T07:51:44;4.78;;;2.65;;
53010;SDS011;42803;55.762;38.084;2022-11-23T07:54:13;6.13;;;3.10;;
53010;SDS011;42803;55.762;38.084;2022-11-23T07:56:49;3.83;;;2.15;;
53010;SDS011;42803;55.762;38.084;2022-11-23T07:59:19;5.85;;;3.35;;
53010;SDS011;42803;55.762;38.084;2022-11-23T08:02:00;4.28;;;2.88;;
53010;SDS011;42803;55.762;38.084;2022-11-23T08:04:29;3.08;;;2.28;;
53010;SDS011;42803;55.762;38.084;2022-11-23T08:07:00;5.18;;;2.80;;
53010;SDS011;42803;55.762;38.084;2022-11-23T08:09:30;5.32;;;3.15;;
53010;SDS011;42803;55.762;38.084;2022-11-23T08:12:00;6.43;;;3.10;;
53010;SDS011;42803;55.762;38.084;2022-11-23T08:14:32;5.57;;;3.13;;
53010;SDS011;42803;55.762;38.084;2022-11-23T08:17:02;5.43;;;3.20;;
53010;SDS011;42803;55.762;38.084;2022-11-23T08:19:31;3.35;;;2.75;;
53010;SDS011;42803;55.762;38.084;2022-11-23T08:22:01;6.00;;;3.30;;
53010;SDS011;42803;55.762;38.084;2022-11-23T08:24:30;5.95;;;3.38;;
53010;SDS011;42803;55.762;38.084;2022-11-23T08:27:00;3.90;;;2.60;;
53010;SDS011;42803;55.762;38.084;2022-11-23T08:29:29;5.00;;;3.78;;
53010;SDS011;42803;55.762;38.084;2022-11-23T08:31:58;4.43;;;2.35;;
53010;SDS011;42803;55.762;38.084;2022-11-23T08:34:27;5.72;;;3.33;;
53010;SDS011;42803;55.762;38.084;2022-11-23T08:36:57;6.57;;;3.33;;
53010;SDS011;42803;55.762;38.084;2022-11-23T08:39:27;5.38;;;3.13;;
53010;SDS011;42803;55.762;38.084;2022-11-23T08:41:56;3.88;;;2.25;;
53010;SDS011;42803;55.762;38.084;2022-11-23T08:44:26;5.55;;;3.00;;
53010;SDS011;42803;55.762;38.084;2022-11-23T08:46:55;4.35;;;3.08;;
53010;SDS011;42803;55.762;38.084;2022-11-23T08:49:24;4.65;;;3.22;;
53010;SDS011;42803;55.762;38.084;2022-11-23T08:51:53;3.92;;;2.53;;
53010;SDS011;42803;55.762;38.084;2022-11-23T08:54:22;3.60;;;2.60;;
53010;SDS011;42803;55.762;38.084;2022-11-23T08:56:53;4.00;;;2.40;;
53010;SDS011;42803;55.762;38.084;2022-11-23T08:59:22;5.18;;;3.15;;
53010;SDS011;42803;55.762;38.084;2022-11-23T09:01:51;5.13;;;3.30;;
53010;SDS011;42803;55.762;38.084;2022-11-23T09:04:21;4.20;;;2.38;;
53010;SDS011;42803;55.762;38.084;2022-11-23T09:06:50;2.95;;;2.60;;
53010;SDS011;42803;55.762;38.084;2022-11-23T09:09:19;4.50;;;2.60;;
53010;SDS011;42803;55.762;38.084;2022-11-23T09:11:48;3.47;;;3.10;;
53010;SDS011;42803;55.762;38.084;2022-11-23T09:14:19;3.60;;;2.47;;
53010;SDS011;42803;55.762;38.084;2022-11-23T09:16:48;5.13;;;2.63;;
53010;SDS011;42803;55.762;38.084;2022-11-23T09:19:17;3.60;;;2.47;;
53010;SDS011;42803;55.762;38.084;2022-11-23T09:21:46;3.63;;;2.70;;
53010;SDS011;42803;55.762;38.084;2022-11-23T09:24:15;3.95;;;2.65;;
53010;SDS011;42803;55.762;38.084;2022-11-23T09:26:45;5.72;;;2.80;;
53010;SDS011;42803;55.762;38.084;2022-11-23T09:29:14;6.70;;;3.15;;
53010;SDS011;42803;55.762;38.084;2022-11-23T09:31:44;4.07;;;2.30;;
53010;SDS011;42803;55.762;38.084;2022-11-23T09:34:13;4.70;;;3.08;;
53010;SDS011;42803;55.762;38.084;2022-11-23T09:36:42;4.32;;;2.53;;
53010;SDS011;42803;55.762;38.084;2022-11-23T09:39:11;4.18;;;2.45;;
53010;SDS011;42803;55.762;38.084;2022-11-23T09:44:36;3.22;;;2.53;;
53010;SDS011;42803;55.762;38.084;2022-11-23T09:47:27;4.88;;;2.60;;
53010;SDS011;42803;55.762;38.084;2022-11-23T09:50:10;4.68;;;3.10;;
53010;SDS011;42803;55.762;38.084;2022-11-23T09:52:44;7.07;;;3.63;;
53010;SDS011;42803;55.762;38.084;2022-11-23T09:55:16;7.75;;;3.78;;
53010;SDS011;42803;55.762;38.084;2022-11-23T09:57:53;5.80;;;3.33;;
53010;SDS011;42803;55.762;38.084;2022-11-23T10:00:27;5.88;;;3.58;;
53010;SDS011;42803;55.762;38.084;2022-11-23T10:03:04;5.47;;;3.35;;
53010;SDS011;42803;55.762;38.084;2022-11-23T10:05:34;5.97;;;3.28;;
53010;SDS011;42803;55.762;38.084;2022-11-23T10:08:09;6.82;;;3.35;;
53010;SDS011;42803;55.762;38.084;2022-11-23T10:10:47;4.38;;;2.95;;
53010;SDS011;42803;55.762;38.084;2022-11-23T10:13:28;4.57;;;3.03;;
53010;SDS011;42803;55.762;38.084;2022-11-23T10:16:08;5.97;;;3.33;;
53010;SDS011;42803;55.762;38.084;2022-11-23T10:18:49;3.75;;;2.65;;
53010;SDS011;42803;55.762;38.084;2022-11-23T10:21:27;3.17;;;2.28;;
53010;SDS011;42803;55.762;38.084;2022-11-23T10:24:09;3.72;;;2.72;;
53010;SDS011;42803;55.762;38.084;2022-11-23T10:26:46;5.50;;;3.10;;
53010;SDS011;42803;55.762;38.084;2022-11-23T10:29:20;4.10;;;2.67;;
53010;SDS011;42803;55.762;38.084;2022-11-23T10:31:54;4.40;;;2.65;;
53010;SDS011;42803;55.762;38.084;2022-11-23T10:34:34;4.07;;;2.28;;
53010;SDS011;42803;55.762;38.084;2022-11-23T10:37:11;3.42;;;2.35;;
53010;SDS011;42803;55.762;38.084;2022-11-23T10:39:41;3.05;;;2.40;;
53010;SDS011;42803;55.762;38.084;2022-11-23T10:42:13;4.00;;;2.10;;
53010;SDS011;42803;55.762;38.084;2022-11-23T10:44:48;3.25;;;2.60;;
53010;SDS011;42803;55.762;38.084;2022-11-23T10:47:35;4.30;;;2.10;;
53010;SDS011;42803;55.762;38.084;2022-11-23T10:50:20;6.93;;;2.63;;
53010;SDS011;42803;55.762;38.084;2022-11-23T10:52:52;2.95;;;2.30;;
53010;SDS011;42803;55.762;38.084;2022-11-23T10:55:24;4.18;;;2.63;;
53010;SDS011;42803;55.762;38.084;2022-11-23T10:57:55;4.10;;;2.50;;
53010;SDS011;42803;55.762;38.084;2022-11-23T11:00:26;4.40;;;2.70;;
53010;SDS011;42803;55.762;38.084;2022-11-23T11:02:57;3.28;;;2.25;;
53010;SDS011;42803;55.762;38.084;2022-11-23T11:05:31;4.75;;;2.47;;
53010;SDS011;42803;55.762;38.084;2022-11-23T11:08:21;3.35;;;2.80;;
53010;SDS011;42803;55.762;38.084;2022-11-23T11:10:58;3.60;;;2.60;;
53010;SDS011;42803;55.762;38.084;2022-11-23T11:13:30;4.15;;;3.13;;
53010;SDS011;42803;55.762;38.084;2022-11-23T11:16:15;3.38;;;2.42;;
53010;SDS011;42803;55.762;38.084;2022-11-23T11:18:47;4.22;;;2.83;;
53010;SDS011;42803;55.762;38.084;2022-11-23T11:21:19;4.13;;;3.00;;
53010;SDS011;42803;55.762;38.084;2022-11-23T11:23:50;4.75;;;3.35;;
53010;SDS011;42803;55.762;38.084;2022-11-23T11:26:22;4.03;;;2.70;;
53010;SDS011;42803;55.762;38.084;2022-11-23T11:29:05;4.45;;;3.13;;
53010;SDS011;42803;55.762;38.084;2022-11-23T11:31:38;4.40;;;2.92;;
53010;SDS011;42803;55.762;38.084;2022-11-23T11:34:23;4.45;;;2.97;;
53010;SDS011;42803;55.762;38.084;2022-11-23T11:36:57;4.50;;;3.20;;
53010;SDS011;42803;55.762;38.084;2022-11-23T11:39:33;5.90;;;3.90;;
53010;SDS011;42803;55.762;38.084;2022-11-23T11:42:10;6.00;;;4.70;;
53010;SDS011;42803;55.762;38.084;2022-11-23T11:44:44;5.22;;;3.40;;
53010;SDS011;42803;55.762;38.084;2022-11-23T11:47:18;5.95;;;3.40;;
53010;SDS011;42803;55.762;38.084;2022-11-23T11:49:55;6.07;;;4.05;;
53010;SDS011;42803;55.762;38.084;2022-11-23T11:52:32;7.40;;;4.60;;
53010;SDS011;42803;55.762;38.084;2022-11-23T11:55:10;6.97;;;4.53;;
53010;SDS011;42803;55.762;38.084;2022-11-23T11:57:44;6.97;;;4.35;;
53010;SDS011;42803;55.762;38.084;2022-11-23T12:00:17;5.82;;;4.07;;
53010;SDS011;42803;55.762;38.084;2022-11-23T12:02:53;7.60;;;4.25;;
53010;SDS011;42803;55.762;38.084;2022-11-23T12:05:35;5.75;;;3.85;;
53010;SDS011;42803;55.762;38.084;2022-11-23T12:08:17;6.75;;;4.15;;
53010;SDS011;42803;55.762;38.084;2022-11-23T12:10:53;5.45;;;3.75;;
53010;SDS011;42803;55.762;38.084;2022-11-23T12:13:26;9.18;;;4.38;;
53010;SDS011;42803;55.762;38.084;2022-11-23T12:15:59;6.70;;;3.80;;
53010;SDS011;42803;55.762;38.084;2022-11-23T12:18:45;7.35;;;4.60;;
53010;SDS011;42803;55.762;38.084;2022-11-23T12:24:37;4.75;;;3.40;;
53010;SDS011;42803;55.762;38.084;2022-11-23T12:27:24;5.15;;;3.58;;
53010;SDS011;42803;55.762;38.084;2022-11-23T12:30:16;4.22;;;3.22;;
53010;SDS011;42803;55.762;38.084;2022-11-23T12:32:56;5.13;;;3.45;;
53010;SDS011;42803;55.762;38.084;2022-11-23T12:36:09;5.18;;;3.25;;
53010;SDS011;42803;55.762;38.084;2022-11-23T12:38:52;4.25;;;3.30;;
53010;SDS011;42803;55.762;38.084;2022-11-23T12:41:25;3.30;;;2.20;;
53010;SDS011;42803;55.762;38.084;2022-11-23T12:47:10;4.65;;;2.47;;
53010;SDS011;42803;55.762;38.084;2022-11-23T12:49:52;4.40;;;2.78;;
53010;SDS011;42803;55.762;38.084;2022-11-23T12:55:03;5.88;;;2.92;;
53010;SDS011;42803;55.762;38.084;2022-11-23T12:57:49;6.67;;;3.37;;
53010;SDS011;42803;55.762;38.084;2022-11-23T13:00:24;4.70;;;2.78;;
53010;SDS011;42803;55.762;38.084;2022-11-23T13:03:03;3.23;;;2.77;;
53010;SDS011;42803;55.762;38.084;2022-11-23T13:08:57;4.00;;;2.80;;
53010;SDS011;42803;55.762;38.084;2022-11-23T13:11:46;4.63;;;3.70;;
53010;SDS011;42803;55.762;38.084;2022-11-23T13:14:30;7.55;;;4.55;;
53010;SDS011;42803;55.762;38.084;2022-11-23T13:17:19;5.00;;;3.85;;
53010;SDS011;42803;55.762;38.084;2022-11-23T13:20:04;4.82;;;3.55;;
53010;SDS011;42803;55.762;38.084;2022-11-23T13:22:56;5.25;;;3.53;;
53010;SDS011;42803;55.762;38.084;2022-11-23T13:25:27;3.38;;;2.75;;
53010;SDS011;42803;55.762;38.084;2022-11-23T13:27:58;3.90;;;3.03;;
53010;SDS011;42803;55.762;38.084;2022-11-23T13:30:32;4.05;;;2.88;;
53010;SDS011;42803;55.762;38.084;2022-11-23T13:33:26;4.35;;;2.90;;
53010;SDS011;42803;55.762;38.084;2022-11-23T13:36:04;3.92;;;2.50;;
53010;SDS011;42803;55.762;38.084;2022-11-23T13:38:45;3.08;;;2.70;;
53010;SDS011;42803;55.762;38.084;2022-11-23T13:44:21;3.60;;;2.65;;
53010;SDS011;42803;55.762;38.084;2022-11-23T13:49:50;5.22;;;3.22;;
53010;SDS011;42803;55.762;38.084;2022-11-23T13:52:24;5.47;;;3.65;;
53010;SDS011;42803;55.762;38.084;2022-11-23T13:54:56;3.05;;;2.70;;
53010;SDS011;42803;55.762;38.084;2022-11-23T13:57:36;4.57;;;3.33;;
53010;SDS011;42803;55.762;38.084;2022-11-23T14:06:19;4.57;;;3.08;;
53010;SDS011;42803;55.762;38.084;2022-11-23T14:09:08;5.13;;;3.05;;
53010;SDS011;42803;55.762;38.084;2022-11-23T14:11:47;3.35;;;2.45;;
53010;SDS011;42803;55.762;38.084;2022-11-23T14:14:38;3.17;;;2.63;;
53010;SDS011;42803;55.762;38.084;2022-11-23T14:23:55;4.03;;;2.45;;
53010;SDS011;42803;55.762;38.084;2022-11-23T14:26:44;3.55;;;2.50;;
53010;SDS011;42803;55.762;38.084;2022-11-23T14:32:39;4.00;;;2.65;;
53010;SDS011;42803;55.762;38.084;2022-11-23T14:35:31;3.42;;;2.88;;
53010;SDS011;42803;55.762;38.084;2022-11-23T14:38:26;4.38;;;2.72;;
53010;SDS011;42803;55.762;38.084;2022-11-23T14:41:20;4.10;;;2.88;;
53010;SDS011;42803;55.762;38.084;2022-11-23T14:43:52;3.45;;;2.50;;
53010;SDS011;42803;55.762;38.084;2022-11-23T14:46:23;2.33;;;1.95;;
53010;SDS011;42803;55.762;38.084;2022-11-23T14:49:01;2.47;;;2.28;;
53010;SDS011;42803;55.762;38.084;2022-11-23T14:51:32;3.45;;;2.55;;
53010;SDS011;42803;55.762;38.084;2022-11-23T14:54:06;2.75;;;2.15;;
53010;SDS011;42803;55.762;38.084;2022-11-23T14:56:40;2.75;;;2.22;;
53010;SDS011;42803;55.762;38.084;2022-11-23T14:59:16;3.50;;;3.00;;
53010;SDS011;42803;55.762;38.084;2022-11-23T15:01:51;2.47;;;1.75;;
53010;SDS011;42803;55.762;38.084;2022-11-23T15:04:24;5.07;;;2.80;;
53010;SDS011;42803;55.762;38.084;2022-11-23T15:06:56;2.30;;;2.10;;
53010;SDS011;42803;55.762;38.084;2022-11-23T15:09:33;5.28;;;2.90;;
53010;SDS011;42803;55.762;38.084;2022-11-23T15:12:20;4.25;;;2.78;;
53010;SDS011;42803;55.762;38.084;2022-11-23T15:14:51;4.03;;;2.95;;
53010;SDS011;42803;55.762;38.084;2022-11-23T15:17:23;4.95;;;3.30;;
53010;SDS011;42803;55.762;38.084;2022-11-23T15:19:54;4.57;;;3.28;;
53010;SDS011;42803;55.762;38.084;2022-11-23T15:22:24;4.68;;;3.05;;
53010;SDS011;42803;55.762;38.084;2022-11-23T15:25:03;4.75;;;3.47;;
53010;SDS011;42803;55.762;38.084;2022-11-23T15:27:35;5.68;;;3.13;;
53010;SDS011;42803;55.762;38.084;2022-11-23T15:30:12;7.07;;;3.03;;
53010;SDS011;42803;55.762;38.084;2022-11-23T15:32:47;5.93;;;3.72;;
53010;SDS011;42803;55.762;38.084;2022-11-23T15:35:24;6.20;;;3.42;;
53010;SDS011;42803;55.762;38.084;2022-11-23T15:37:58;6.57;;;3.25;;
53010;SDS011;42803;55.762;38.084;2022-11-23T15:40:29;6.15;;;3.88;;
53010;SDS011;42803;55.762;38.084;2022-11-23T15:43:01;10.48;;;3.85;;
53010;SDS011;42803;55.762;38.084;2022-11-23T15:45:38;6.15;;;4.25;;
53010;SDS011;42803;55.762;38.084;2022-11-23T15:48:27;6.97;;;4.57;;
53010;SDS011;42803;55.762;38.084;2022-11-23T15:50:59;4.30;;;2.92;;